createdAt,value
2023-04-22T00:04:34.723Z,0
2023-04-22T00:08:36.892Z,0
2023-04-22T00:14:40.848Z,0
2023-04-22T00:18:43.124Z,0
2023-04-22T00:24:48.132Z,0
2023-04-22T00:28:50.713Z,0
2023-04-22T00:30:52.215Z,0
2023-04-22T00:34:54.452Z,0
2023-04-22T00:40:58.797Z,0
2023-04-22T00:47:02.933Z,0
2023-04-22T00:51:05.280Z,0
2023-04-22T00:57:08.657Z,0
2023-04-22T01:01:12.085Z,0
2023-04-22T01:03:13.705Z,0
2023-04-22T01:07:16.191Z,0
2023-04-22T01:11:19.170Z,0
2023-04-22T01:13:20.979Z,0
2023-04-22T01:17:23.687Z,0
2023-04-22T01:23:28.429Z,0
2023-04-22T01:27:31.022Z,0
2023-04-22T01:29:32.925Z,0
2023-04-22T01:33:35.164Z,0.561
2023-04-22T01:39:39.682Z,1.684
2023-04-22T01:43:42.904Z,0
2023-04-22T01:45:44.178Z,0.14
2023-04-22T01:49:46.725Z,0
2023-04-22T01:53:49.753Z,0
2023-04-22T01:55:51.630Z,0
2023-04-22T01:59:54.792Z,0
2023-04-22T02:05:58.844Z,0
2023-04-22T02:10:01.463Z,0
2023-04-22T02:12:03.189Z,0
2023-04-22T02:16:06.043Z,0
2023-04-22T02:22:10.367Z,0.561
2023-04-22T02:28:13.605Z,0
2023-04-22T02:32:25.431Z,0
2023-04-22T02:38:20.300Z,0
2023-04-22T02:42:23.067Z,0
2023-04-22T02:44:24.933Z,0
2023-04-22T02:48:27.743Z,0
2023-04-22T02:52:30.816Z,0
2023-04-22T02:54:32.217Z,0.28
2023-04-22T02:58:35.372Z,0
2023-04-22T03:04:40.282Z,1.123
2023-04-22T03:10:45.290Z,0
2023-04-22T03:14:48.739Z,0
2023-04-22T03:20:52.659Z,0
2023-04-22T03:24:55.822Z,0
2023-04-22T03:26:57.705Z,0
2023-04-22T03:30:59.887Z,0
2023-04-22T03:35:02.850Z,0
2023-04-22T03:37:04.430Z,0
2023-04-22T03:41:07.105Z,0
2023-04-22T03:47:11.378Z,0
2023-04-22T03:51:15.017Z,0
2023-04-22T03:53:16.937Z,0
2023-04-22T03:57:20.412Z,0
2023-04-22T04:03:24.590Z,0
2023-04-22T04:07:27.370Z,0
2023-04-22T04:09:28.714Z,0
2023-04-22T04:13:31.775Z,0
2023-04-22T04:17:34.635Z,0
2023-04-22T04:19:35.882Z,0
2023-04-22T04:23:39.039Z,0
2023-04-22T04:29:42.737Z,0
2023-04-22T04:33:45.890Z,0
2023-04-22T04:35:46.863Z,0
2023-04-22T04:39:48.958Z,0
2023-04-22T04:45:53.297Z,0
2023-04-22T04:49:56.212Z,0
2023-04-22T04:51:58.096Z,0
2023-04-22T04:56:00.667Z,0
2023-04-22T05:00:02.799Z,0
2023-04-22T05:02:04.250Z,0
2023-04-22T05:06:06.911Z,0
2023-04-22T05:10:11.091Z,0
2023-04-22T05:12:12.610Z,0
2023-04-22T05:16:15.431Z,0
2023-04-22T05:18:16.336Z,0
2023-04-22T05:19:00.161Z,0
2023-04-22T05:23:03.051Z,0
2023-04-22T05:25:04.868Z,0
2023-04-22T05:29:07.475Z,0
2023-04-22T05:33:10.390Z,0
2023-04-22T05:39:16.027Z,0
2023-04-22T05:43:19.499Z,0
2023-04-22T05:47:23.114Z,0
2023-04-22T05:49:24.880Z,0
2023-04-22T05:53:27.336Z,0
2023-04-22T05:55:28.909Z,0
2023-04-22T05:57:30.761Z,0
2023-04-22T05:59:40.697Z,0
2023-04-22T06:05:36.954Z,0
2023-04-22T06:07:38.829Z,0
2023-04-22T06:11:41.735Z,0
2023-04-22T06:15:52.143Z,0
2023-04-22T06:21:48.831Z,0.28
2023-04-22T06:25:52.004Z,0.982
2023-04-22T06:27:53.760Z,0
2023-04-22T06:31:56.459Z,0
2023-04-22T06:38:00.211Z,0
2023-04-22T06:42:03.310Z,0
2023-04-22T06:44:04.693Z,0
2023-04-22T06:48:07.845Z,0
2023-04-22T06:54:12.426Z,0
2023-04-22T06:58:15.501Z,0.421
2023-04-22T07:00:17.189Z,1.123
2023-04-22T07:04:20.202Z,0
2023-04-22T07:08:23.320Z,1.263
2023-04-22T07:10:24.943Z,0.28
2023-04-22T07:14:27.487Z,0
2023-04-22T07:20:31.897Z,1.965
2023-04-22T07:24:34.123Z,0.561
2023-04-22T07:26:35.977Z,0
2023-04-22T07:30:38.448Z,0.14
2023-04-22T07:36:42.093Z,0
2023-04-22T07:42:46.970Z,2.527
2023-04-22T07:46:49.973Z,3.369
2023-04-22T07:52:53.015Z,1.965
2023-04-22T07:56:56.003Z,0
2023-04-22T08:03:00.303Z,0
2023-04-22T08:07:06.179Z,2.527
2023-04-22T08:09:03.244Z,3.51
2023-04-22T08:13:06.422Z,4.773
2023-04-22T08:19:10.230Z,2.386
2023-04-22T08:25:14.972Z,0.421
2023-04-22T08:29:17.516Z,1.263
2023-04-22T08:35:21.711Z,2.948
2023-04-22T08:39:24.102Z,2.948
2023-04-22T08:41:25.877Z,3.65
2023-04-22T08:45:28.750Z,0.982
2023-04-22T08:49:31.429Z,0
2023-04-22T08:51:32.354Z,1.263
2023-04-22T08:55:35.028Z,0
2023-04-22T09:01:40.219Z,1.825
2023-04-22T09:05:42.636Z,2.106
2023-04-22T09:07:43.984Z,0
2023-04-22T09:12:12.248Z,0
2023-04-22T09:17:50.814Z,0
2023-04-22T09:21:54.376Z,0.28
2023-04-22T09:23:54.816Z,1.544
2023-04-22T09:27:58.009Z,3.088
2023-04-22T09:32:01.312Z,2.808
2023-04-22T09:34:02.304Z,0.702
2023-04-22T09:38:05.461Z,1.123
2023-04-22T09:44:08.713Z,0
2023-04-22T09:48:11.434Z,2.246
2023-04-22T09:50:12.447Z,0
2023-04-22T09:54:14.827Z,2.106
2023-04-22T10:00:17.871Z,1.123
2023-04-22T10:02:18.901Z,6.177
2023-04-22T10:06:21.584Z,3.65
2023-04-22T10:10:23.782Z,2.948
2023-04-22T10:16:27.705Z,2.948
2023-04-22T10:20:29.822Z,6.739
2023-04-22T10:22:31.054Z,0.421
2023-04-22T10:26:33.832Z,0.421
2023-04-22T10:30:36.437Z,3.51
2023-04-22T10:32:38.055Z,7.862
2023-04-22T10:36:40.366Z,4.071
2023-04-22T10:42:45.758Z,4.633
2023-04-22T10:46:47.741Z,5.616
2023-04-22T10:48:48.838Z,7.02
2023-04-22T10:52:51.172Z,1.965
2023-04-22T10:58:55.289Z,7.16
2023-04-22T11:02:58.710Z,5.054
2023-04-22T11:04:59.789Z,10.81
2023-04-22T11:09:02.118Z,4.773
2023-04-22T11:13:05.212Z,5.756
2023-04-22T11:15:07.018Z,5.896
2023-04-22T11:19:09.640Z,2.808
2023-04-22T11:23:11.815Z,4.914
2023-04-22T11:25:12.975Z,6.598
2023-04-22T11:29:15.745Z,4.914
2023-04-22T11:31:17.026Z,4.773
2023-04-22T11:33:18.144Z,5.335
2023-04-22T11:35:19.752Z,6.037
2023-04-22T11:41:23.724Z,10.951
2023-04-22T11:43:25.713Z,4.914
2023-04-22T11:47:28.345Z,3.65
2023-04-22T11:51:31.398Z,6.458
2023-04-22T11:57:34.307Z,3.088
2023-04-22T12:01:37.209Z,4.914
2023-04-22T12:03:38.661Z,3.51
2023-04-22T12:04:22.223Z,4.914
2023-04-22T12:06:23.617Z,5.896
2023-04-22T12:08:24.910Z,5.335
2023-04-22T12:12:27.574Z,6.598
2023-04-22T12:18:31.037Z,8.002
2023-04-22T12:22:34.339Z,4.352
2023-04-22T12:24:35.658Z,5.896
2023-04-22T12:28:38.042Z,7.3
2023-04-22T12:34:41.824Z,7.3
2023-04-22T12:38:44.547Z,6.739
2023-04-22T12:40:45.789Z,5.475
2023-04-22T12:44:48.191Z,3.51
2023-04-22T12:48:50.990Z,7.02
2023-04-22T12:50:52.718Z,5.194
2023-04-22T12:54:54.992Z,7.441
2023-04-22T12:58:57.472Z,5.475
2023-04-22T13:00:58.984Z,6.177
2023-04-22T13:05:02.325Z,3.088
2023-04-22T13:07:03.122Z,6.177
2023-04-22T13:09:04.060Z,7.862
2023-04-22T13:11:04.847Z,8.143
2023-04-22T13:17:09.404Z,6.879
2023-04-22T13:19:10.910Z,0.561
2023-04-22T13:23:12.765Z,3.088
2023-04-22T13:27:15.544Z,1.965
2023-04-22T13:33:19.033Z,7.441
2023-04-22T13:37:21.431Z,3.51
2023-04-22T13:39:22.444Z,3.088
2023-04-22T13:43:25.087Z,3.79
2023-04-22T13:47:27.597Z,5.896
2023-04-22T13:49:28.552Z,7.441
2023-04-22T13:53:32.415Z,6.318
2023-04-22T13:59:35.699Z,3.79
2023-04-22T14:03:38.339Z,7.3
2023-04-22T14:05:39.345Z,4.071
2023-04-22T14:09:43.336Z,2.808
2023-04-22T14:15:46.384Z,7.02
2023-04-22T14:17:47.749Z,3.088
2023-04-22T14:21:50.370Z,2.106
2023-04-22T14:25:52.773Z,5.194
2023-04-22T14:27:53.840Z,0.561
2023-04-22T14:29:55.491Z,3.79
2023-04-22T14:35:58.775Z,5.475
2023-04-22T14:38:00.425Z,0.561
2023-04-22T14:42:03.069Z,2.948
2023-04-22T14:46:05.349Z,3.229
2023-04-22T14:48:06.394Z,4.352
2023-04-22T14:52:08.687Z,1.684
2023-04-22T14:58:12.644Z,5.475
2023-04-22T15:04:16.368Z,1.965
2023-04-22T15:08:18.325Z,4.071
2023-04-22T15:14:22.303Z,2.527
2023-04-22T15:18:24.302Z,1.965
2023-04-22T15:20:25.508Z,3.65
2023-04-22T15:26:29.005Z,3.369
2023-04-22T15:28:29.934Z,4.212
2023-04-22T15:30:31.694Z,10.108
2023-04-22T15:34:33.706Z,3.088
2023-04-22T15:38:35.752Z,4.492
2023-04-22T15:40:36.862Z,4.212
2023-04-22T15:44:39.087Z,1.123
2023-04-22T15:46:40.306Z,2.527
2023-04-22T15:50:42.757Z,5.054
2023-04-22T15:56:47.526Z,4.352
2023-04-22T16:02:52.175Z,0.14
2023-04-22T16:06:54.787Z,3.088
2023-04-22T16:12:58.817Z,0
2023-04-22T16:17:01.017Z,0.982
2023-04-22T16:19:02.377Z,0.702
2023-04-22T16:23:05.153Z,3.65
2023-04-22T16:27:07.966Z,0
2023-04-22T16:29:09.061Z,1.404
2023-04-22T16:33:12.651Z,0.421
2023-04-22T16:39:16.958Z,4.773
2023-04-22T16:43:19.638Z,3.51
2023-04-22T16:45:20.577Z,0.561
2023-04-22T16:49:23.077Z,1.684
2023-04-22T16:55:26.307Z,0.14
2023-04-22T17:01:30.552Z,1.825
2023-04-22T17:05:32.778Z,1.263
2023-04-22T17:09:34.727Z,3.088
2023-04-22T17:11:35.973Z,0.28
2023-04-22T17:15:37.901Z,0
2023-04-22T17:21:42.061Z,0
2023-04-22T17:25:44.106Z,0
2023-04-22T17:27:45.530Z,0
2023-04-22T17:29:46.589Z,0
2023-04-22T17:31:47.640Z,0
2023-04-22T17:37:52.112Z,0
2023-04-22T17:43:58.520Z,0
2023-04-22T17:47:59.469Z,0
2023-04-22T17:54:03.919Z,0
2023-04-22T17:58:06.690Z,0
2023-04-22T18:00:08.186Z,0
2023-04-22T18:04:11.957Z,0
2023-04-22T18:08:13.530Z,0
2023-04-22T18:10:14.974Z,0
2023-04-22T18:14:17.276Z,0
2023-04-22T18:20:21.139Z,0
2023-04-22T18:26:25.487Z,0
2023-04-22T18:30:28.700Z,0
2023-04-22T18:36:31.700Z,2.386
2023-04-22T18:40:34.136Z,0.28
2023-04-22T18:42:35.349Z,0
2023-04-22T18:46:38.148Z,0.14
2023-04-22T18:49:23.563Z,0
2023-04-22T18:51:24.742Z,0
2023-04-22T18:55:26.958Z,0
2023-04-22T18:57:28.571Z,0
2023-04-22T19:01:31.494Z,0
2023-04-22T19:03:33.025Z,0
2023-04-22T19:07:35.364Z,0
2023-04-22T19:13:39.959Z,0.14
2023-04-22T19:17:43.566Z,1.404
2023-04-22T19:19:45.139Z,0
2023-04-22T19:23:47.291Z,0.982
2023-04-22T19:29:51.422Z,0.702
2023-04-22T19:33:54.242Z,0.842
2023-04-22T19:37:57.322Z,0.702
2023-04-22T19:39:59.066Z,3.65
2023-04-22T19:44:01.278Z,1.404
2023-04-22T19:46:02.703Z,0.982
2023-04-22T19:50:04.639Z,3.65
2023-04-22T19:56:07.479Z,2.808
2023-04-22T20:02:12.496Z,6.879
2023-04-22T20:06:14.724Z,7.3
2023-04-22T20:12:18.798Z,7.16
2023-04-22T20:16:22.430Z,4.633
2023-04-22T20:18:23.778Z,3.229
2023-04-22T20:22:26.523Z,7.722
2023-04-22T20:26:29.597Z,4.071
2023-04-22T20:28:30.488Z,6.458
2023-04-22T20:32:32.635Z,6.037
2023-04-22T20:38:36.483Z,9.687
2023-04-22T20:42:38.326Z,11.512
2023-04-22T20:44:40.103Z,7.722
2023-04-22T20:48:42.293Z,8.283
2023-04-22T20:54:47.151Z,3.369
2023-04-22T21:00:51.382Z,5.194
2023-04-22T21:04:54.638Z,12.074
2023-04-22T21:10:58.177Z,6.598
2023-04-22T21:15:01.263Z,5.335
2023-04-22T21:19:03.951Z,0.14
2023-04-22T21:21:05.349Z,1.965
2023-04-22T21:25:08.288Z,1.965
2023-04-22T21:27:09.274Z,1.123
2023-04-22T21:31:12.043Z,1.544
2023-04-22T21:37:16.108Z,1.123
2023-04-22T21:43:20.806Z,3.51
2023-04-22T21:47:23.966Z,5.756
2023-04-22T21:53:28.818Z,7.16
2023-04-22T21:57:31.059Z,5.335
2023-04-22T21:59:32.325Z,3.51
2023-04-22T22:03:35.922Z,5.194
2023-04-22T22:07:38.063Z,2.386
2023-04-22T22:09:39.856Z,3.79
2023-04-22T22:13:42.080Z,2.527
2023-04-22T22:19:46.152Z,3.369
2023-04-22T22:23:48.596Z,1.684
2023-04-22T22:25:50.126Z,3.79
2023-04-22T22:29:52.391Z,2.667
2023-04-22T22:35:55.878Z,1.544
2023-04-22T22:39:58.475Z,6.318
2023-04-22T22:42:00.074Z,2.667
2023-04-22T22:46:02.234Z,7.581
2023-04-22T22:50:04.840Z,5.896
2023-04-22T22:52:05.993Z,3.369
2023-04-22T22:56:08.857Z,2.667
2023-04-22T23:00:11.807Z,3.65
2023-04-22T23:02:21.553Z,1.263
2023-04-22T23:06:17.113Z,5.194
2023-04-22T23:08:18.529Z,2.106
2023-04-22T23:12:21.115Z,1.263
2023-04-22T23:18:24.641Z,2.386
2023-04-22T23:24:28.874Z,2.948
2023-04-22T23:28:31.335Z,4.352
2023-04-22T23:34:35.648Z,1.965
2023-04-22T23:38:38.640Z,4.633
2023-04-22T23:40:39.790Z,0.982
2023-04-22T23:44:42.353Z,0
2023-04-22T23:48:44.749Z,2.948
2023-04-22T23:50:45.980Z,2.667
2023-04-22T23:54:48.910Z,2.527
